createdAt,value
2023-02-25T00:00:38.115Z,14.23
2023-02-25T00:01:41.746Z,14.55
2023-02-25T00:02:46.786Z,8.50
2023-02-25T00:03:56.018Z,6.70
2023-02-25T00:05:00.306Z,5.10
2023-02-25T00:06:04.017Z,6.85
2023-02-25T00:07:06.268Z,7.47
2023-02-25T00:08:09.156Z,7.07
2023-02-25T00:09:11.414Z,7.20
2023-02-25T00:10:17.300Z,8.02
2023-02-25T00:11:22.537Z,9.63
2023-02-25T00:12:25.129Z,8.20
2023-02-25T00:13:28.600Z,5.38
2023-02-25T00:14:30.858Z,4.72
2023-02-25T00:15:33.087Z,4.13
2023-02-25T00:16:35.436Z,3.97
2023-02-25T00:17:40.973Z,4.53
2023-02-25T00:18:46.839Z,3.47
2023-02-25T00:19:49.236Z,2.90
2023-02-25T00:20:51.514Z,3.33
2023-02-25T00:21:53.910Z,3.25
2023-02-25T00:22:56.181Z,3.58
2023-02-25T00:24:07.326Z,3.20
2023-02-25T00:25:17.494Z,4.10
2023-02-25T00:26:22.814Z,3.60
2023-02-25T00:27:25.642Z,4.80
2023-02-25T00:28:28.345Z,4.05
2023-02-25T00:29:31.327Z,4.05
2023-02-25T00:30:35.192Z,3.85
2023-02-25T00:31:37.643Z,3.80
2023-02-25T00:32:40.304Z,3.70
2023-02-25T00:33:42.949Z,3.63
2023-02-25T00:34:46.480Z,3.40
2023-02-25T00:35:50.460Z,3.42
2023-02-25T00:36:52.895Z,3.65
2023-02-25T00:38:03.991Z,4.43
2023-02-25T00:39:14.008Z,3.88
2023-02-25T00:40:16.651Z,4.00
2023-02-25T00:41:23.321Z,3.80
2023-02-25T00:42:25.645Z,3.35
2023-02-25T00:43:30.811Z,3.70
2023-02-25T00:44:33.110Z,3.20
2023-02-25T00:45:39.451Z,3.45
2023-02-25T00:46:41.803Z,3.35
2023-02-25T00:47:44.609Z,4.28
2023-02-25T00:48:47.189Z,3.38
2023-02-25T00:49:49.637Z,4.38
2023-02-25T00:50:51.959Z,3.72
2023-02-25T00:51:57.530Z,2.90
2023-02-25T00:53:01.079Z,3.83
2023-02-25T00:54:03.572Z,3.72
2023-02-25T00:55:07.071Z,4.32
2023-02-25T00:56:14.990Z,3.00
2023-02-25T00:57:17.294Z,3.50
2023-02-25T00:58:19.526Z,3.85
2023-02-25T00:59:22.127Z,2.83
2023-02-25T01:00:24.585Z,3.92
2023-02-25T01:01:30.641Z,3.20
2023-02-25T01:02:32.930Z,3.17
2023-02-25T01:03:35.170Z,3.80
2023-02-25T01:04:37.480Z,2.92
2023-02-25T01:05:42.951Z,2.90
2023-02-25T01:06:45.413Z,3.60
2023-02-25T01:07:47.855Z,3.17
2023-02-25T01:08:50.175Z,2.70
2023-02-25T01:09:56.108Z,3.65
2023-02-25T01:10:58.353Z,3.40
2023-02-25T01:12:01.708Z,3.47
2023-02-25T01:13:04.919Z,2.95
2023-02-25T01:14:12.788Z,3.10
2023-02-25T01:15:15.224Z,2.92
2023-02-25T01:16:21.495Z,2.47
2023-02-25T01:17:24.010Z,2.53
2023-02-25T01:18:26.329Z,4.28
2023-02-25T01:19:29.260Z,3.47
2023-02-25T01:20:31.575Z,3.10
2023-02-25T01:21:39.442Z,2.92
2023-02-25T01:22:42.022Z,4.35
2023-02-25T01:23:46.251Z,2.65
2023-02-25T01:24:48.549Z,2.60
2023-02-25T01:25:50.822Z,2.80
2023-02-25T01:26:55.070Z,2.20
2023-02-25T01:27:57.816Z,2.55
2023-02-25T01:29:00.235Z,2.47
2023-02-25T01:30:02.896Z,2.28
2023-02-25T01:31:05.461Z,1.80
2023-02-25T01:32:11.096Z,1.92
2023-02-25T01:33:13.653Z,2.20
2023-02-25T01:34:17.659Z,2.13
2023-02-25T01:35:19.937Z,2.78
2023-02-25T01:36:22.640Z,1.98
2023-02-25T01:37:25.458Z,2.17
2023-02-25T01:38:27.791Z,2.20
2023-02-25T01:39:30.150Z,2.13
2023-02-25T01:40:32.525Z,2.15
2023-02-25T01:41:36.539Z,4.22
2023-02-25T01:42:38.819Z,1.70
2023-02-25T01:43:41.788Z,2.10
2023-02-25T01:45:19.294Z,1.90
2023-02-25T01:46:21.934Z,1.77
2023-02-25T01:47:24.432Z,2.10
2023-02-25T01:48:32.924Z,1.98
2023-02-25T01:49:40.765Z,1.77
2023-02-25T01:50:47.975Z,2.67
2023-02-25T01:51:54.880Z,2.17
2023-02-25T01:53:00.460Z,1.95
2023-02-25T01:54:04.486Z,1.88
2023-02-25T01:55:10.841Z,2.45
2023-02-25T01:56:16.873Z,1.98
2023-02-25T01:57:19.550Z,1.58
2023-02-25T01:58:22.698Z,1.63
2023-02-25T01:59:28.785Z,1.65
2023-02-25T02:00:32.581Z,2.08
2023-02-25T02:01:38.431Z,1.63
2023-02-25T02:02:41.221Z,2.15
2023-02-25T02:03:44.647Z,1.90
2023-02-25T02:04:51.199Z,1.73
2023-02-25T02:06:04.854Z,1.90
2023-02-25T02:07:07.763Z,2.53
2023-02-25T02:08:10.190Z,1.92
2023-02-25T02:09:16.001Z,2.30
2023-02-25T02:10:19.727Z,1.90
2023-02-25T02:11:22.528Z,2.60
2023-02-25T02:12:30.667Z,1.85
2023-02-25T02:13:36.067Z,1.90
2023-02-25T02:14:42.127Z,1.70
2023-02-25T02:16:14.408Z,1.90
2023-02-25T02:17:53.936Z,1.83
2023-02-25T02:19:25.510Z,1.70
2023-02-25T02:20:33.419Z,2.65
2023-02-25T02:21:55.609Z,1.90
2023-02-25T02:23:22.205Z,1.98
2023-02-25T02:24:47.463Z,1.88
2023-02-25T02:26:33.370Z,2.03
2023-02-25T02:28:09.381Z,2.08
2023-02-25T02:29:39.348Z,1.92
2023-02-25T02:31:09.620Z,1.88
2023-02-25T02:32:56.147Z,1.90
2023-02-25T02:34:16.667Z,2.55
2023-02-25T02:35:30.202Z,1.92
2023-02-25T02:36:56.435Z,2.20
2023-02-25T02:38:12.309Z,2.13
2023-02-25T02:39:45.615Z,2.40
2023-02-25T02:40:49.587Z,2.90
2023-02-25T02:42:02.442Z,2.50
2023-02-25T02:43:43.333Z,1.90
2023-02-25T02:45:01.179Z,1.88
2023-02-25T02:46:18.528Z,2.10
2023-02-25T02:47:23.413Z,2.00
2023-02-25T02:48:43.543Z,2.70
2023-02-25T02:49:56.725Z,2.47
2023-02-25T02:51:03.032Z,2.67
2023-02-25T02:52:16.969Z,2.45
2023-02-25T02:53:42.601Z,2.20
2023-02-25T02:54:49.554Z,2.20
2023-02-25T02:55:55.062Z,2.20
2023-02-25T02:57:00.768Z,3.10
2023-02-25T02:58:14.114Z,2.42
2023-02-25T02:59:51.697Z,2.45
2023-02-25T03:01:01.290Z,2.35
2023-02-25T03:02:14.291Z,2.42
2023-02-25T03:03:22.483Z,2.67
2023-02-25T03:04:30.905Z,2.45
2023-02-25T03:05:35.551Z,2.80
2023-02-25T03:06:43.544Z,2.40
2023-02-25T03:07:54.223Z,1.95
2023-02-25T03:09:24.771Z,2.30
2023-02-25T03:10:27.420Z,1.80
2023-02-25T03:11:31.384Z,2.05
2023-02-25T03:12:33.838Z,1.92
2023-02-25T03:13:36.273Z,2.33
2023-02-25T03:14:38.935Z,2.22
2023-02-25T03:15:41.762Z,1.80
2023-02-25T03:17:02.476Z,1.88
2023-02-25T03:18:26.491Z,2.10
2023-02-25T03:19:42.691Z,2.50
2023-02-25T03:20:49.524Z,1.70
2023-02-25T03:21:59.599Z,1.80
2023-02-25T03:23:06.661Z,2.45
2023-02-25T03:24:28.581Z,1.65
2023-02-25T03:25:36.095Z,1.98
2023-02-25T03:26:42.726Z,2.20
2023-02-25T03:27:48.836Z,1.92
2023-02-25T03:28:55.036Z,2.45
2023-02-25T03:30:12.719Z,1.80
2023-02-25T03:31:15.241Z,1.77
2023-02-25T03:32:19.663Z,2.20
2023-02-25T03:33:27.363Z,2.30
2023-02-25T03:34:37.731Z,2.65
2023-02-25T03:35:42.030Z,2.30
2023-02-25T03:36:49.568Z,2.00
2023-02-25T03:37:56.282Z,2.10
2023-02-25T03:39:22.828Z,1.95
2023-02-25T03:40:26.205Z,2.30
2023-02-25T03:41:35.527Z,2.20
2023-02-25T03:42:43.628Z,2.20
2023-02-25T03:43:52.711Z,2.15
2023-02-25T03:44:58.695Z,1.85
2023-02-25T03:46:03.504Z,1.83
2023-02-25T03:47:08.442Z,2.03
2023-02-25T03:48:13.689Z,2.15
2023-02-25T03:49:23.105Z,1.83
2023-02-25T03:50:31.039Z,2.30
2023-02-25T03:51:41.413Z,2.10
2023-02-25T03:52:43.740Z,1.95
2023-02-25T03:54:00.350Z,1.90
2023-02-25T03:55:09.737Z,1.80
2023-02-25T03:56:12.464Z,1.98
2023-02-25T03:57:19.190Z,1.83
2023-02-25T03:58:21.666Z,2.13
2023-02-25T03:59:27.975Z,2.10
2023-02-25T04:00:32.871Z,1.60
2023-02-25T04:01:36.389Z,1.90
2023-02-25T04:02:40.379Z,1.75
2023-02-25T04:03:42.834Z,2.22
2023-02-25T04:04:45.915Z,1.90
2023-02-25T04:05:48.764Z,1.90
2023-02-25T04:06:51.306Z,2.47
2023-02-25T04:07:55.016Z,2.58
2023-02-25T04:08:58.182Z,2.25
2023-02-25T04:10:00.583Z,2.10
2023-02-25T04:11:02.870Z,1.92
2023-02-25T04:12:06.179Z,1.80
2023-02-25T04:13:08.455Z,2.00
2023-02-25T04:14:10.966Z,2.30
2023-02-25T04:15:16.822Z,2.35
2023-02-25T04:16:19.097Z,1.70
2023-02-25T04:17:23.128Z,1.70
2023-02-25T04:18:26.693Z,2.30
2023-02-25T04:19:29.192Z,2.17
2023-02-25T04:20:32.424Z,1.80
2023-02-25T04:21:36.909Z,1.90
2023-02-25T04:22:39.551Z,2.00
2023-02-25T04:23:41.805Z,1.60
2023-02-25T04:24:44.066Z,1.98
2023-02-25T04:25:46.335Z,2.08
2023-02-25T04:26:48.580Z,2.30
2023-02-25T04:27:50.902Z,1.83
2023-02-25T04:28:53.386Z,2.38
2023-02-25T04:29:55.829Z,1.88
2023-02-25T04:30:58.293Z,2.15
2023-02-25T04:32:00.724Z,1.83
2023-02-25T04:33:03.518Z,2.15
2023-02-25T04:34:05.769Z,1.70
2023-02-25T04:35:14.706Z,2.05
2023-02-25T04:36:27.071Z,1.70
2023-02-25T04:37:29.912Z,1.70
2023-02-25T04:38:32.220Z,2.03
2023-02-25T04:39:34.582Z,2.05
2023-02-25T04:40:37.390Z,1.88
2023-02-25T04:41:39.853Z,1.80
2023-02-25T04:42:42.827Z,2.42
2023-02-25T04:43:45.761Z,2.10
2023-02-25T04:44:48.340Z,1.50
2023-02-25T04:45:50.568Z,1.52
2023-02-25T04:46:52.893Z,1.35
2023-02-25T04:47:57.885Z,1.65
2023-02-25T04:49:00.791Z,2.17
2023-02-25T04:50:04.467Z,1.80
2023-02-25T04:51:07.516Z,1.70
2023-02-25T04:52:09.734Z,1.60
2023-02-25T04:53:12.170Z,1.75
2023-02-25T04:54:14.440Z,2.20
2023-02-25T04:55:17.067Z,1.63
2023-02-25T04:56:20.118Z,1.77
2023-02-25T04:57:23.798Z,1.38
2023-02-25T04:58:26.181Z,1.73
2023-02-25T04:59:28.457Z,2.05
2023-02-25T05:00:30.754Z,1.80
2023-02-25T05:01:33.204Z,1.60
2023-02-25T05:02:35.505Z,1.90
2023-02-25T05:03:38.370Z,1.75
2023-02-25T05:04:40.833Z,2.05
2023-02-25T05:05:43.140Z,1.75
2023-02-25T05:06:45.399Z,1.95
2023-02-25T05:07:47.783Z,1.70
2023-02-25T05:08:51.017Z,2.55
2023-02-25T05:09:53.252Z,2.13
2023-02-25T05:10:55.702Z,1.80
2023-02-25T05:11:57.970Z,2.30
2023-02-25T05:13:00.240Z,1.85
2023-02-25T05:14:02.620Z,1.65
2023-02-25T05:15:06.191Z,1.58
2023-02-25T05:16:11.807Z,1.60
2023-02-25T05:17:15.798Z,1.30
2023-02-25T05:18:18.201Z,2.05
2023-02-25T05:19:22.657Z,2.05
2023-02-25T05:20:24.980Z,1.92
2023-02-25T05:21:27.892Z,1.92
2023-02-25T05:22:30.199Z,1.70
2023-02-25T05:23:32.424Z,1.40
2023-02-25T05:24:34.726Z,2.00
2023-02-25T05:25:41.426Z,2.30
2023-02-25T05:26:44.023Z,1.80
2023-02-25T05:27:46.356Z,2.22
2023-02-25T05:28:52.898Z,1.48
2023-02-25T05:29:56.102Z,1.60
2023-02-25T05:30:59.102Z,2.03
2023-02-25T05:32:01.670Z,1.55
2023-02-25T05:33:04.879Z,1.70
2023-02-25T05:34:07.184Z,2.22
2023-02-25T05:35:10.117Z,2.40
2023-02-25T05:36:14.733Z,1.50
2023-02-25T05:37:17.118Z,1.58
2023-02-25T05:38:19.457Z,1.50
2023-02-25T05:39:21.901Z,2.05
2023-02-25T05:40:24.182Z,2.00
2023-02-25T05:41:26.555Z,1.95
2023-02-25T05:42:29.186Z,1.80
2023-02-25T05:43:31.489Z,1.52
2023-02-25T05:44:34.139Z,1.60
2023-02-25T05:45:36.395Z,1.88
2023-02-25T05:46:38.705Z,1.35
2023-02-25T05:47:41.118Z,1.63
2023-02-25T05:48:48.401Z,1.60
2023-02-25T05:49:50.670Z,1.98
2023-02-25T05:51:11.358Z,1.55
2023-02-25T05:52:14.124Z,1.70
2023-02-25T05:53:17.792Z,1.58
2023-02-25T05:54:20.157Z,1.50
2023-02-25T05:55:22.391Z,1.30
2023-02-25T05:56:28.860Z,1.85
2023-02-25T05:57:32.388Z,1.75
2023-02-25T05:58:35.401Z,1.20
2023-02-25T05:59:37.851Z,1.50
2023-02-25T06:00:40.312Z,1.45
2023-02-25T06:01:42.730Z,1.70
2023-02-25T06:02:45.040Z,1.50
2023-02-25T06:03:48.996Z,1.83
2023-02-25T06:04:54.050Z,1.30
2023-02-25T06:05:56.590Z,1.50
2023-02-25T06:06:58.839Z,1.58
2023-02-25T06:08:01.099Z,1.60
2023-02-25T06:09:05.943Z,1.80
2023-02-25T06:10:08.910Z,1.60
2023-02-25T06:11:14.385Z,2.10
2023-02-25T06:12:16.629Z,1.40
2023-02-25T06:13:18.995Z,1.88
2023-02-25T06:14:21.427Z,1.35
2023-02-25T06:15:23.686Z,1.73
2023-02-25T06:16:32.083Z,1.85
2023-02-25T06:17:34.777Z,1.65
2023-02-25T06:18:37.172Z,1.70
2023-02-25T06:19:39.409Z,1.58
2023-02-25T06:20:41.652Z,1.83
2023-02-25T06:21:43.952Z,1.60
2023-02-25T06:22:46.289Z,1.73
2023-02-25T06:23:50.468Z,1.80
2023-02-25T06:24:52.865Z,1.40
2023-02-25T06:25:57.700Z,2.00
2023-02-25T06:26:59.916Z,2.10
2023-02-25T06:28:02.723Z,1.90
2023-02-25T06:29:04.990Z,1.70
2023-02-25T06:30:07.901Z,1.55
2023-02-25T06:31:13.222Z,2.22
2023-02-25T06:32:16.105Z,1.90
2023-02-25T06:33:18.439Z,1.98
2023-02-25T06:34:20.997Z,2.67
2023-02-25T06:35:23.565Z,1.85
2023-02-25T06:36:26.755Z,1.50
2023-02-25T06:37:29.187Z,1.95
2023-02-25T06:38:32.915Z,1.75
2023-02-25T06:39:35.669Z,2.30
2023-02-25T06:40:38.519Z,2.40
2023-02-25T06:41:40.791Z,2.28
2023-02-25T06:42:43.125Z,1.95
2023-02-25T06:43:45.971Z,2.38
2023-02-25T06:44:48.195Z,2.08
2023-02-25T06:45:50.960Z,2.08
2023-02-25T06:46:55.658Z,2.00
2023-02-25T06:47:58.705Z,2.40
2023-02-25T06:49:00.972Z,2.10
2023-02-25T06:50:03.878Z,1.55
2023-02-25T06:51:09.436Z,2.45
2023-02-25T06:52:11.942Z,2.47
2023-02-25T06:53:14.177Z,2.60
2023-02-25T06:54:19.894Z,1.90
2023-02-25T06:55:22.207Z,2.25
2023-02-25T06:56:26.720Z,2.05
2023-02-25T06:57:29.169Z,2.10
2023-02-25T06:58:31.461Z,2.00
2023-02-25T06:59:35.775Z,2.00
2023-02-25T07:00:38.052Z,1.85
2023-02-25T07:01:40.613Z,1.90
2023-02-25T07:02:42.937Z,2.40
2023-02-25T07:03:45.188Z,1.98
2023-02-25T07:04:47.457Z,2.17
2023-02-25T07:05:49.766Z,2.30
2023-02-25T07:06:52.055Z,2.63
2023-02-25T07:07:54.340Z,2.47
2023-02-25T07:08:57.301Z,2.38
2023-02-25T07:09:59.696Z,2.10
2023-02-25T07:11:27.129Z,2.47
2023-02-25T07:12:29.419Z,2.08
2023-02-25T07:13:31.711Z,2.65
2023-02-25T07:14:34.013Z,2.45
2023-02-25T07:15:36.892Z,1.95
2023-02-25T07:16:39.277Z,3.25
2023-02-25T07:17:41.525Z,2.70
2023-02-25T07:18:44.624Z,7.25
2023-02-25T07:19:46.922Z,5.50
2023-02-25T07:20:49.243Z,2.90
2023-02-25T07:21:51.557Z,2.70
2023-02-25T07:22:53.811Z,2.78
2023-02-25T07:23:56.326Z,2.75
2023-02-25T07:24:58.699Z,2.50
2023-02-25T07:26:06.049Z,2.92
2023-02-25T07:27:08.503Z,2.95
2023-02-25T07:28:10.775Z,3.40
2023-02-25T07:29:13.868Z,2.42
2023-02-25T07:30:16.220Z,2.10
2023-02-25T07:31:23.636Z,3.47
2023-02-25T07:32:26.342Z,2.58
2023-02-25T07:33:30.081Z,2.08
2023-02-25T07:34:32.395Z,2.05
2023-02-25T07:35:34.691Z,4.30
2023-02-25T07:36:38.059Z,2.13
2023-02-25T07:37:40.548Z,2.20
2023-02-25T07:38:43.272Z,2.42
2023-02-25T07:39:47.629Z,2.10
2023-02-25T07:40:50.623Z,2.08
2023-02-25T07:41:52.911Z,2.58
2023-02-25T07:42:55.772Z,2.22
2023-02-25T07:43:58.126Z,2.35
2023-02-25T07:45:02.197Z,2.30
2023-02-25T07:46:04.850Z,2.45
2023-02-25T07:47:07.196Z,2.92
2023-02-25T07:48:09.683Z,3.00
2023-02-25T07:49:12.061Z,3.67
2023-02-25T07:50:14.414Z,2.60
2023-02-25T07:51:22.203Z,2.15
2023-02-25T07:52:24.653Z,2.08
2023-02-25T07:53:26.925Z,1.85
2023-02-25T07:54:29.232Z,1.77
2023-02-25T07:55:31.533Z,1.80
2023-02-25T07:56:33.930Z,1.95
2023-02-25T07:57:36.217Z,2.15
2023-02-25T07:58:39.208Z,2.13
2023-02-25T07:59:41.592Z,2.00
2023-02-25T08:00:46.310Z,1.80
2023-02-25T08:01:48.610Z,1.67
2023-02-25T08:02:50.894Z,2.20
2023-02-25T08:03:55.401Z,2.15
2023-02-25T08:04:57.768Z,2.00
2023-02-25T08:06:02.707Z,1.73
2023-02-25T08:07:05.088Z,1.75
2023-02-25T08:08:07.343Z,2.03
2023-02-25T08:09:13.962Z,1.70
2023-02-25T08:10:17.064Z,2.78
2023-02-25T08:11:23.147Z,1.85
2023-02-25T08:12:25.576Z,2.42
2023-02-25T08:13:27.807Z,2.23
2023-02-25T08:14:30.103Z,2.47
2023-02-25T08:15:32.493Z,2.50
2023-02-25T08:16:34.832Z,2.40
2023-02-25T08:17:37.096Z,2.22
2023-02-25T08:18:42.750Z,2.15
2023-02-25T08:19:45.053Z,1.73
2023-02-25T08:20:47.641Z,1.92
2023-02-25T08:21:50.001Z,1.77
2023-02-25T08:22:52.251Z,2.35
2023-02-25T08:23:54.782Z,2.03
2023-02-25T08:24:57.468Z,2.28
2023-02-25T08:26:00.278Z,1.65
2023-02-25T08:27:02.577Z,1.77
2023-02-25T08:28:05.040Z,1.52
2023-02-25T08:29:07.892Z,1.70
2023-02-25T08:30:11.364Z,1.77
2023-02-25T08:31:14.068Z,1.70
2023-02-25T08:32:17.147Z,1.60
2023-02-25T08:33:20.616Z,1.30
2023-02-25T08:34:22.961Z,1.58
2023-02-25T08:35:25.994Z,1.67
2023-02-25T08:36:31.329Z,1.60
2023-02-25T08:37:33.650Z,1.88
2023-02-25T08:38:37.918Z,1.60
2023-02-25T08:39:40.187Z,1.80
2023-02-25T08:40:43.209Z,1.45
2023-02-25T08:41:45.592Z,1.85
2023-02-25T08:42:47.802Z,1.60
2023-02-25T08:43:54.464Z,1.90
2023-02-25T08:44:56.866Z,1.70
2023-02-25T08:46:01.199Z,1.33
2023-02-25T08:47:05.149Z,1.65
2023-02-25T08:48:07.782Z,1.73
2023-02-25T08:49:10.217Z,1.80
2023-02-25T08:50:13.012Z,1.30
2023-02-25T08:51:15.515Z,1.67
2023-02-25T08:52:17.787Z,1.40
2023-02-25T08:53:20.593Z,1.30
2023-02-25T08:54:23.029Z,1.52
2023-02-25T08:55:26.010Z,1.25
2023-02-25T08:56:29.082Z,1.45
2023-02-25T08:57:31.748Z,1.55
2023-02-25T08:58:34.371Z,1.23
2023-02-25T08:59:37.158Z,1.50
2023-02-25T09:00:40.441Z,1.38
2023-02-25T09:01:46.649Z,1.70
2023-02-25T09:02:49.616Z,1.70
2023-02-25T09:03:54.583Z,1.50
2023-02-25T09:04:56.988Z,1.40
2023-02-25T09:05:59.350Z,1.55
2023-02-25T09:07:02.227Z,1.42
2023-02-25T09:08:05.003Z,1.20
2023-02-25T09:09:07.315Z,1.50
2023-02-25T09:10:10.356Z,1.08
2023-02-25T09:11:12.720Z,1.20
2023-02-25T09:12:15.066Z,1.38
2023-02-25T09:13:17.429Z,1.40
2023-02-25T09:14:20.839Z,1.10
2023-02-25T09:15:23.223Z,1.30
2023-02-25T09:16:28.327Z,1.30
2023-02-25T09:17:30.931Z,1.30
2023-02-25T09:18:33.285Z,1.27
2023-02-25T09:19:38.849Z,1.25
2023-02-25T09:20:41.161Z,1.45
2023-02-25T09:21:43.691Z,1.15
2023-02-25T09:22:45.987Z,1.10
2023-02-25T09:23:51.402Z,1.55
2023-02-25T09:24:53.909Z,1.10
2023-02-25T09:25:56.188Z,1.30
2023-02-25T09:26:58.584Z,1.30
2023-02-25T09:28:00.837Z,1.60
2023-02-25T09:29:07.150Z,1.20
2023-02-25T09:30:10.041Z,1.45
2023-02-25T09:31:12.515Z,1.10
2023-02-25T09:32:21.150Z,1.58
2023-02-25T09:33:24.520Z,1.40
2023-02-25T09:34:27.227Z,1.40
2023-02-25T09:35:29.755Z,1.20
2023-02-25T09:36:32.778Z,1.40
2023-02-25T09:37:35.135Z,1.38
2023-02-25T09:38:38.670Z,1.77
2023-02-25T09:39:43.137Z,1.45
2023-02-25T09:40:50.210Z,1.40
2023-02-25T09:42:00.516Z,1.05
2023-02-25T09:43:16.933Z,1.10
2023-02-25T09:44:28.235Z,1.17
2023-02-25T09:45:33.918Z,1.30
2023-02-25T09:46:41.719Z,1.33
2023-02-25T09:47:55.093Z,0.90
2023-02-25T09:49:03.381Z,1.42
2023-02-25T09:50:18.574Z,1.20
2023-02-25T09:51:31.359Z,1.15
2023-02-25T09:52:35.333Z,1.15
2023-02-25T09:53:57.152Z,1.70
2023-02-25T09:55:08.295Z,1.60
2023-02-25T09:56:15.112Z,1.20
2023-02-25T09:57:20.045Z,1.40
2023-02-25T09:58:31.381Z,1.10
2023-02-25T09:59:33.890Z,1.50
2023-02-25T10:00:41.760Z,1.50
2023-02-25T10:01:58.546Z,1.13
2023-02-25T10:03:30.027Z,1.60
2023-02-25T10:04:51.909Z,1.30
2023-02-25T10:06:13.768Z,1.17
2023-02-25T10:07:24.242Z,1.23
2023-02-25T10:08:44.242Z,1.00
2023-02-25T10:10:10.788Z,1.25
2023-02-25T10:11:36.929Z,1.55
2023-02-25T10:13:01.623Z,1.58
2023-02-25T10:14:32.258Z,1.20
2023-02-25T10:15:56.497Z,1.00
2023-02-25T10:17:17.470Z,1.60
2023-02-25T10:18:46.207Z,1.48
2023-02-25T10:20:18.395Z,1.30
2023-02-25T10:21:36.913Z,1.10
2023-02-25T10:22:51.401Z,1.27
2023-02-25T10:24:22.435Z,1.05
2023-02-25T10:25:30.306Z,1.20
2023-02-25T10:26:39.759Z,1.00
2023-02-25T10:27:48.027Z,1.00
2023-02-25T10:28:58.530Z,1.05
2023-02-25T10:30:14.534Z,1.20
2023-02-25T10:31:20.373Z,1.27
2023-02-25T10:32:27.016Z,1.20
2023-02-25T10:33:33.988Z,1.10
2023-02-25T10:34:38.953Z,1.27
2023-02-25T10:35:42.930Z,1.30
2023-02-25T10:36:53.453Z,0.93
2023-02-25T10:37:56.149Z,1.20
2023-02-25T10:38:58.465Z,1.10
2023-02-25T10:40:04.438Z,1.00
2023-02-25T10:41:07.659Z,1.20
2023-02-25T10:42:11.831Z,1.15
2023-02-25T10:43:20.666Z,1.33
2023-02-25T10:44:22.889Z,0.95
2023-02-25T10:45:28.191Z,0.95
2023-02-25T10:46:37.332Z,0.90
2023-02-25T10:47:43.081Z,1.20
2023-02-25T10:48:53.296Z,1.10
2023-02-25T10:50:45.562Z,1.10
2023-02-25T10:52:01.012Z,1.50
2023-02-25T10:53:16.028Z,1.65
2023-02-25T10:54:18.300Z,2.33
2023-02-25T10:55:38.190Z,1.40
2023-02-25T10:56:44.470Z,1.25
2023-02-25T10:57:46.871Z,0.93
2023-02-25T10:59:01.103Z,1.00
2023-02-25T11:00:36.484Z,1.80
2023-02-25T11:01:42.361Z,1.00
2023-02-25T11:02:44.971Z,1.02
2023-02-25T11:03:53.710Z,1.10
2023-02-25T11:04:56.383Z,1.20
2023-02-25T11:06:23.340Z,1.55
2023-02-25T11:07:36.082Z,1.50
2023-02-25T11:08:38.497Z,1.40
2023-02-25T11:09:40.762Z,1.10
2023-02-25T11:10:43.047Z,1.00
2023-02-25T11:12:21.160Z,0.90
2023-02-25T11:13:32.377Z,1.13
2023-02-25T11:14:37.421Z,0.90
2023-02-25T11:15:45.845Z,0.90
2023-02-25T11:16:48.696Z,0.90
2023-02-25T11:17:55.168Z,0.90
2023-02-25T11:19:02.589Z,1.25
2023-02-25T11:20:06.229Z,1.00
2023-02-25T11:21:13.117Z,0.88
2023-02-25T11:22:22.283Z,1.33
2023-02-25T11:23:39.895Z,1.00
2023-02-25T11:24:43.035Z,1.15
2023-02-25T11:25:45.368Z,0.95
2023-02-25T11:26:51.223Z,1.20
2023-02-25T11:27:58.660Z,1.35
2023-02-25T11:29:25.169Z,0.80
2023-02-25T11:30:37.763Z,1.02
2023-02-25T11:31:42.062Z,1.67
2023-02-25T11:32:53.691Z,1.40
2023-02-25T11:33:59.380Z,1.10
2023-02-25T11:35:08.867Z,1.20
2023-02-25T11:36:12.101Z,1.20
2023-02-25T11:37:40.792Z,1.00
2023-02-25T11:38:44.330Z,1.60
2023-02-25T11:40:28.253Z,0.90
2023-02-25T11:41:34.190Z,0.82
2023-02-25T11:42:36.458Z,1.00
2023-02-25T11:43:40.746Z,1.20
2023-02-25T11:44:44.988Z,1.20
2023-02-25T11:45:49.507Z,1.00
2023-02-25T11:47:15.609Z,1.13
2023-02-25T11:48:22.079Z,1.50
2023-02-25T11:49:59.611Z,1.08
2023-02-25T11:51:24.453Z,0.80
2023-02-25T11:52:45.806Z,1.08
2023-02-25T11:54:03.166Z,1.13
2023-02-25T11:55:36.824Z,1.20
2023-02-25T11:56:45.077Z,0.98
2023-02-25T11:57:47.273Z,1.08
2023-02-25T11:58:58.093Z,1.17
2023-02-25T12:00:11.546Z,1.30
2023-02-25T12:01:36.567Z,1.10
2023-02-25T12:02:53.653Z,1.27
2023-02-25T12:04:16.040Z,0.93
2023-02-25T12:05:29.885Z,1.95
2023-02-25T12:06:52.937Z,1.40
2023-02-25T12:08:14.368Z,1.38
2023-02-25T12:09:34.894Z,1.45
2023-02-25T12:11:14.136Z,1.02
2023-02-25T12:12:39.588Z,1.10
2023-02-25T12:14:03.425Z,1.30
2023-02-25T12:15:46.926Z,1.20
2023-02-25T12:17:07.322Z,1.60
2023-02-25T12:18:22.727Z,2.30
2023-02-25T12:19:30.989Z,1.90
2023-02-25T12:21:02.014Z,1.50
2023-02-25T12:22:22.704Z,0.93
2023-02-25T12:23:57.207Z,1.10
2023-02-25T12:25:10.580Z,1.30
2023-02-25T12:26:44.561Z,1.30
2023-02-25T12:28:01.875Z,1.35
2023-02-25T12:29:25.484Z,1.85
2023-02-25T12:30:50.651Z,1.40
2023-02-25T12:32:04.230Z,1.40
2023-02-25T12:33:24.432Z,1.30
2023-02-25T12:34:55.871Z,1.10
2023-02-25T12:36:23.212Z,1.00
2023-02-25T12:38:10.968Z,1.33
2023-02-25T12:39:41.881Z,1.40
2023-02-25T12:40:58.868Z,1.50
2023-02-25T12:42:22.312Z,2.10
2023-02-25T12:43:34.725Z,1.55
2023-02-25T12:45:02.760Z,1.20
2023-02-25T12:46:22.971Z,1.90
2023-02-25T12:47:50.516Z,1.92
2023-02-25T12:49:10.582Z,2.35
2023-02-25T12:50:26.679Z,1.65
2023-02-25T12:51:56.486Z,1.73
2023-02-25T12:53:29.995Z,1.70
2023-02-25T12:55:00.170Z,1.67
2023-02-25T12:56:28.979Z,1.23
2023-02-25T12:57:49.040Z,1.70
2023-02-25T12:59:28.702Z,1.27
2023-02-25T13:00:53.041Z,1.27
2023-02-25T13:02:17.997Z,1.00
2023-02-25T13:03:22.969Z,1.15
2023-02-25T13:04:50.074Z,1.35
2023-02-25T13:06:10.983Z,1.38
2023-02-25T13:07:53.930Z,1.50
2023-02-25T13:09:34.612Z,1.13
2023-02-25T13:10:47.318Z,1.27
2023-02-25T13:12:20.320Z,1.60
2023-02-25T13:13:52.135Z,1.40
2023-02-25T13:15:18.618Z,1.33
2023-02-25T13:16:48.743Z,1.10
2023-02-25T13:18:17.979Z,1.33
2023-02-25T13:19:37.039Z,1.25
2023-02-25T13:21:12.743Z,1.85
2023-02-25T13:22:50.062Z,1.23
2023-02-25T13:24:01.296Z,1.30
2023-02-25T13:25:40.377Z,1.30
2023-02-25T13:27:20.034Z,1.70
2023-02-25T13:28:45.308Z,1.25
2023-02-25T13:29:53.449Z,1.20
2023-02-25T13:31:09.978Z,1.60
2023-02-25T13:32:16.209Z,2.70
2023-02-25T13:33:41.906Z,2.85
2023-02-25T13:35:01.296Z,4.50
2023-02-25T13:36:39.098Z,3.00
2023-02-25T13:38:10.037Z,2.22
2023-02-25T13:39:49.724Z,4.68
2023-02-25T13:41:27.626Z,3.13
2023-02-25T13:42:32.703Z,3.05
2023-02-25T13:44:04.232Z,3.05
2023-02-25T13:45:21.184Z,2.97
2023-02-25T13:47:00.296Z,2.17
2023-02-25T13:48:14.824Z,1.95
2023-02-25T13:49:30.386Z,2.10
2023-02-25T13:50:59.696Z,1.40
2023-02-25T13:52:09.558Z,1.73
2023-02-25T13:53:32.337Z,1.83
2023-02-25T13:54:53.117Z,1.80
2023-02-25T13:56:32.639Z,4.00
2023-02-25T13:58:13.842Z,3.92
2023-02-25T13:59:38.676Z,3.70
2023-02-25T14:01:12.698Z,4.45
2023-02-25T14:02:40.423Z,3.20
2023-02-25T14:04:09.235Z,3.03
2023-02-25T14:05:24.029Z,1.98
2023-02-25T14:06:43.033Z,1.92
2023-02-25T14:07:55.839Z,1.92
2023-02-25T14:09:22.284Z,2.30
2023-02-25T14:10:40.735Z,2.30
2023-02-25T14:12:13.384Z,1.40
2023-02-25T14:13:42.508Z,1.25
2023-02-25T14:15:04.581Z,1.40
2023-02-25T14:16:47.527Z,1.15
2023-02-25T14:18:20.354Z,1.65
2023-02-25T14:19:25.497Z,1.15
2023-02-25T14:20:53.277Z,1.58
2023-02-25T14:22:07.127Z,1.40
2023-02-25T14:23:17.817Z,1.40
2023-02-25T14:24:42.088Z,1.00
2023-02-25T14:26:22.784Z,1.20
2023-02-25T14:28:05.840Z,1.25
2023-02-25T14:29:51.958Z,0.82
2023-02-25T14:31:00.288Z,1.40
2023-02-25T14:32:08.772Z,1.45
2023-02-25T14:33:24.485Z,1.70
2023-02-25T14:35:04.349Z,1.90
2023-02-25T14:36:29.301Z,1.58
2023-02-25T14:37:42.850Z,1.40
2023-02-25T14:38:51.101Z,1.50
2023-02-25T14:40:18.341Z,1.33
2023-02-25T14:41:30.658Z,1.73
2023-02-25T14:42:41.521Z,1.38
2023-02-25T14:43:46.588Z,1.85
2023-02-25T14:45:01.267Z,1.52
2023-02-25T14:46:14.075Z,1.40
2023-02-25T14:47:42.047Z,1.25
2023-02-25T14:49:03.184Z,1.60
2023-02-25T14:50:28.107Z,1.45
2023-02-25T14:51:48.453Z,1.48
2023-02-25T14:53:35.310Z,1.48
2023-02-25T14:55:14.842Z,1.40
2023-02-25T14:56:52.663Z,1.10
2023-02-25T14:58:22.086Z,1.48
2023-02-25T14:59:43.151Z,1.25
2023-02-25T15:01:03.600Z,1.15
2023-02-25T15:02:26.741Z,1.00
2023-02-25T15:03:54.959Z,1.30
2023-02-25T15:05:18.688Z,1.20
2023-02-25T15:06:46.727Z,1.08
2023-02-25T15:08:06.845Z,0.80
2023-02-25T15:09:23.761Z,1.50
2023-02-25T15:10:47.239Z,1.25
2023-02-25T15:12:10.726Z,1.45
2023-02-25T15:13:45.010Z,1.38
2023-02-25T15:15:21.021Z,1.20
2023-02-25T15:16:26.429Z,1.40
2023-02-25T15:17:46.528Z,1.27
2023-02-25T15:19:10.298Z,2.10
2023-02-25T15:20:25.556Z,1.73
2023-02-25T15:21:41.045Z,1.30
2023-02-25T15:23:09.460Z,1.52
2023-02-25T15:24:38.138Z,1.50
2023-02-25T15:25:53.985Z,1.77
2023-02-25T15:26:57.458Z,1.30
2023-02-25T15:28:02.480Z,1.25
2023-02-25T15:29:04.948Z,1.73